Airfield :
LOGIN :

Register | Disclaimer

   EN    FR    IT 

 










Legend :    VFR   Marginal VFR   IFR   Intensive IFR   Very Intensive IFR
Visi :
Ceiling :
>= 8 km
>= 3000ft
5 to 8 km
1000 to 3000 ft
1500m to 5 km
500 to 1000 ft
800 to 1500m
200 to 500 ft
< 800m
< 200 ft
Symbols :   Thunderstorms  Fog  Heavy snow  Heavy precipitations  Wind > 20 kt
SIGMETs :     Misc.  Thunderstorms  Icing  Turbulence  Mountain Waves  Volcanic Ashes






- Airport Elevation : 412 ft
- IATA code : ORE


LFOJ - Orleans

CURRENT METAR :
  • 151300Z AUTO VRB03KT CAVOK 27/14 Q1014 NOSIG

EXPIRED METARs :
  • 151230Z AUTO VRB02KT CAVOK 27/13 Q1014 NOSIG
  • 151200Z AUTO VRB04KT 9999 FEW043 26/14 Q1015 NOSIG
  • 151130Z AUTO 29005KT 260V330 9999 SCT044 25/15 Q1015 NOSIG
  • 151100Z AUTO 32003KT 260V010 9999 BKN040 24/14 Q1015 NOSIG
  • 151030Z AUTO VRB02KT CAVOK 24/15 Q1015 NOSIG

TAF AMD TAF LFOJ
Valid from the 15 at 10:00 until the 16 at 09:00 UTC


151020Z 1510/1609 01005KT CAVOK
BECMG 1602/1604 22017G30KT 4000 RA SCT009 BKN012
PROB30
TEMPO 1603/1606 2000 TSRA BKN009 BKN060CB
BECMG 1606/1609 18007KT 9999 NSW BKN020



MET'MAP, your aeronautical weather chart ! - Copyright ORBIFLY December 2007 - Disclaimer

ORBIFLY MET'MAP TEAM :

Programming & Development : Alexandra Zaïnal
Concept & original design : Baudouin d'Aumeries
Assistance for programming : Marc-Olivier Méhu
Technical & hardware support : Manuel Goepfert

Contact : metmap@orbifly.com




SOURCES & CREDITS :

   NOAA